sensor_id;sensor_type;location;lat;lon;timestamp;pressure;altitude;pressure_sealevel;temperature;humidity
967;BME280;56108;48.730;9.304;2022-09-24T00:01:08;97406.53;;;10.49;100.00
967;BME280;56108;48.730;9.304;2022-09-24T00:03:22;97401.56;;;10.44;100.00
967;BME280;56108;48.730;9.304;2022-09-24T00:05:35;97401.44;;;10.46;100.00
967;BME280;56108;48.730;9.304;2022-09-24T00:07:43;97401.13;;;10.38;100.00
967;BME280;56108;48.730;9.304;2022-09-24T00:09:51;97389.97;;;10.33;100.00
967;BME280;56108;48.730;9.304;2022-09-24T00:11:59;97388.06;;;10.35;100.00
967;BME280;56108;48.730;9.304;2022-09-24T00:14:12;97380.81;;;10.37;100.00
967;BME280;56108;48.730;9.304;2022-09-24T00:16:22;97382.41;;;10.39;100.00
967;BME280;56108;48.730;9.304;2022-09-24T00:18:32;97378.03;;;10.38;100.00
967;BME280;56108;48.730;9.304;2022-09-24T00:20:41;97376.34;;;10.37;100.00
967;BME280;56108;48.730;9.304;2022-09-24T00:22:48;97382.09;;;10.31;100.00
967;BME280;56108;48.730;9.304;2022-09-24T00:24:56;97374.25;;;10.30;100.00
967;BME280;56108;48.730;9.304;2022-09-24T00:27:16;97368.47;;;10.23;100.00
967;BME280;56108;48.730;9.304;2022-09-24T00:29:27;97369.97;;;10.27;100.00
967;BME280;56108;48.730;9.304;2022-09-24T00:31:38;97367.31;;;10.27;100.00
967;BME280;56108;48.730;9.304;2022-09-24T00:33:46;97368.94;;;10.30;100.00
967;BME280;56108;48.730;9.304;2022-09-24T00:35:57;97369.66;;;10.19;100.00
967;BME280;56108;48.730;9.304;2022-09-24T00:38:06;97360.59;;;10.22;100.00
967;BME280;56108;48.730;9.304;2022-09-24T00:40:14;97358.75;;;10.24;100.00
967;BME280;56108;48.730;9.304;2022-09-24T00:42:23;97371.91;;;10.25;100.00
967;BME280;56108;48.730;9.304;2022-09-24T00:44:53;97365.94;;;10.22;100.00
967;BME280;56108;48.730;9.304;2022-09-24T00:47:01;97363.50;;;10.18;100.00
967;BME280;56108;48.730;9.304;2022-09-24T00:49:11;97360.97;;;10.04;100.00
967;BME280;56108;48.730;9.304;2022-09-24T00:51:22;97354.50;;;9.96;100.00
967;BME280;56108;48.730;9.304;2022-09-24T00:53:31;97353.63;;;9.95;100.00
967;BME280;56108;48.730;9.304;2022-09-24T00:55:39;97344.50;;;9.86;100.00
967;BME280;56108;48.730;9.304;2022-09-24T00:57:50;97335.28;;;9.79;100.00
967;BME280;56108;48.730;9.304;2022-09-24T01:00:03;97317.09;;;9.73;100.00
967;BME280;56108;48.730;9.304;2022-09-24T01:02:11;97319.44;;;9.78;100.00
967;BME280;56108;48.730;9.304;2022-09-24T01:04:20;97311.06;;;9.71;100.00
967;BME280;56108;48.730;9.304;2022-09-24T01:06:28;97310.31;;;9.69;100.00
967;BME280;56108;48.730;9.304;2022-09-24T01:08:35;97296.59;;;9.62;100.00
967;BME280;56108;48.730;9.304;2022-09-24T01:10:53;97312.09;;;9.68;100.00
967;BME280;56108;48.730;9.304;2022-09-24T01:13:11;97309.34;;;9.83;100.00
967;BME280;56108;48.730;9.304;2022-09-24T01:15:27;97311.34;;;9.92;100.00
967;BME280;56108;48.730;9.304;2022-09-24T01:17:42;97308.56;;;9.81;100.00
967;BME280;56108;48.730;9.304;2022-09-24T01:20:19;97312.84;;;9.83;100.00
967;BME280;56108;48.730;9.304;2022-09-24T01:22:42;97319.66;;;9.87;100.00
967;BME280;56108;48.730;9.304;2022-09-24T01:24:59;97315.91;;;9.90;100.00
967;BME280;56108;48.730;9.304;2022-09-24T01:27:13;97301.03;;;9.87;100.00
967;BME280;56108;48.730;9.304;2022-09-24T01:29:46;97303.94;;;9.72;100.00
967;BME280;56108;48.730;9.304;2022-09-24T01:32:00;97296.81;;;9.59;100.00
967;BME280;56108;48.730;9.304;2022-09-24T01:34:10;97293.94;;;9.50;100.00
967;BME280;56108;48.730;9.304;2022-09-24T01:36:20;97289.91;;;9.44;100.00
967;BME280;56108;48.730;9.304;2022-09-24T01:38:31;97285.03;;;9.38;100.00
967;BME280;56108;48.730;9.304;2022-09-24T01:40:42;97278.22;;;9.34;100.00
967;BME280;56108;48.730;9.304;2022-09-24T01:42:52;97272.50;;;9.27;100.00
967;BME280;56108;48.730;9.304;2022-09-24T01:45:05;97264.56;;;9.14;100.00
967;BME280;56108;48.730;9.304;2022-09-24T01:47:17;97255.31;;;9.20;100.00
967;BME280;56108;48.730;9.304;2022-09-24T01:49:26;97266.97;;;9.18;100.00
967;BME280;56108;48.730;9.304;2022-09-24T01:51:38;97262.84;;;9.13;100.00
967;BME280;56108;48.730;9.304;2022-09-24T01:53:50;97258.06;;;9.06;100.00
967;BME280;56108;48.730;9.304;2022-09-24T01:56:03;97255.59;;;9.03;100.00
967;BME280;56108;48.730;9.304;2022-09-24T01:58:16;97254.88;;;9.01;100.00
967;BME280;56108;48.730;9.304;2022-09-24T02:00:29;97249.56;;;9.01;100.00
967;BME280;56108;48.730;9.304;2022-09-24T02:02:43;97242.25;;;9.04;100.00
967;BME280;56108;48.730;9.304;2022-09-24T02:04:57;97238.63;;;9.05;100.00
967;BME280;56108;48.730;9.304;2022-09-24T02:07:09;97243.22;;;9.03;100.00
967;BME280;56108;48.730;9.304;2022-09-24T02:09:30;97236.09;;;9.04;100.00
967;BME280;56108;48.730;9.304;2022-09-24T02:11:39;97243.63;;;9.10;100.00
967;BME280;56108;48.730;9.304;2022-09-24T02:13:50;97236.38;;;9.12;100.00
967;BME280;56108;48.730;9.304;2022-09-24T02:16:11;97241.47;;;9.02;100.00
967;BME280;56108;48.730;9.304;2022-09-24T02:18:22;97236.50;;;8.98;100.00
967;BME280;56108;48.730;9.304;2022-09-24T02:20:34;97239.69;;;8.90;100.00
967;BME280;56108;48.730;9.304;2022-09-24T02:22:43;97247.44;;;8.93;100.00
967;BME280;56108;48.730;9.304;2022-09-24T02:24:54;97244.69;;;8.95;100.00
967;BME280;56108;48.730;9.304;2022-09-24T02:27:04;97242.03;;;8.95;100.00
967;BME280;56108;48.730;9.304;2022-09-24T02:29:12;97246.56;;;8.93;100.00
967;BME280;56108;48.730;9.304;2022-09-24T02:31:24;97245.72;;;8.92;100.00
967;BME280;56108;48.730;9.304;2022-09-24T02:33:35;97248.59;;;8.89;100.00
967;BME280;56108;48.730;9.304;2022-09-24T02:35:59;97243.19;;;8.91;100.00
967;BME280;56108;48.730;9.304;2022-09-24T02:38:14;97236.59;;;8.96;100.00
967;BME280;56108;48.730;9.304;2022-09-24T02:40:23;97226.31;;;9.04;100.00
967;BME280;56108;48.730;9.304;2022-09-24T02:42:32;97216.84;;;9.13;100.00
967;BME280;56108;48.730;9.304;2022-09-24T02:44:40;97213.66;;;9.08;100.00
967;BME280;56108;48.730;9.304;2022-09-24T02:46:50;97214.75;;;9.05;100.00
967;BME280;56108;48.730;9.304;2022-09-24T02:48:58;97225.38;;;9.05;100.00
967;BME280;56108;48.730;9.304;2022-09-24T02:51:08;97228.22;;;9.15;100.00
967;BME280;56108;48.730;9.304;2022-09-24T02:53:16;97224.06;;;9.24;100.00
967;BME280;56108;48.730;9.304;2022-09-24T02:55:24;97232.47;;;9.30;100.00
967;BME280;56108;48.730;9.304;2022-09-24T02:57:31;97233.19;;;9.32;100.00
967;BME280;56108;48.730;9.304;2022-09-24T02:59:39;97241.41;;;9.29;100.00
967;BME280;56108;48.730;9.304;2022-09-24T03:01:50;97236.94;;;9.30;100.00
967;BME280;56108;48.730;9.304;2022-09-24T03:03:58;97236.38;;;9.37;100.00
967;BME280;56108;48.730;9.304;2022-09-24T03:06:06;97237.22;;;9.38;100.00
967;BME280;56108;48.730;9.304;2022-09-24T03:08:14;97235.13;;;9.30;100.00
967;BME280;56108;48.730;9.304;2022-09-24T03:10:22;97232.78;;;9.26;100.00
967;BME280;56108;48.730;9.304;2022-09-24T03:12:29;97228.13;;;9.29;100.00
967;BME280;56108;48.730;9.304;2022-09-24T03:14:37;97230.03;;;9.27;100.00
967;BME280;56108;48.730;9.304;2022-09-24T03:16:45;97223.75;;;9.28;100.00
967;BME280;56108;48.730;9.304;2022-09-24T03:18:55;97223.00;;;9.26;100.00
967;BME280;56108;48.730;9.304;2022-09-24T03:21:06;97214.41;;;9.23;100.00
967;BME280;56108;48.730;9.304;2022-09-24T03:23:14;97211.22;;;9.30;100.00
967;BME280;56108;48.730;9.304;2022-09-24T03:25:22;97216.81;;;9.38;100.00
967;BME280;56108;48.730;9.304;2022-09-24T03:27:30;97219.38;;;9.53;100.00
967;BME280;56108;48.730;9.304;2022-09-24T03:29:38;97215.28;;;9.60;100.00
967;BME280;56108;48.730;9.304;2022-09-24T03:31:58;97213.84;;;9.43;100.00
967;BME280;56108;48.730;9.304;2022-09-24T03:34:09;97225.94;;;9.60;100.00
967;BME280;56108;48.730;9.304;2022-09-24T03:36:18;97225.75;;;9.50;100.00
967;BME280;56108;48.730;9.304;2022-09-24T03:38:27;97228.28;;;9.52;100.00
967;BME280;56108;48.730;9.304;2022-09-24T03:40:35;97225.50;;;9.66;100.00
967;BME280;56108;48.730;9.304;2022-09-24T03:42:43;97221.44;;;9.73;100.00
967;BME280;56108;48.730;9.304;2022-09-24T03:44:56;97229.94;;;9.78;100.00
967;BME280;56108;48.730;9.304;2022-09-24T03:47:15;97227.91;;;9.82;100.00
967;BME280;56108;48.730;9.304;2022-09-24T03:49:25;97224.44;;;9.68;100.00
967;BME280;56108;48.730;9.304;2022-09-24T03:51:33;97229.94;;;9.78;100.00
967;BME280;56108;48.730;9.304;2022-09-24T03:53:41;97225.78;;;9.74;100.00
967;BME280;56108;48.730;9.304;2022-09-24T03:55:53;97220.72;;;9.71;100.00
967;BME280;56108;48.730;9.304;2022-09-24T03:58:01;97219.94;;;9.82;100.00
967;BME280;56108;48.730;9.304;2022-09-24T04:00:10;97224.47;;;9.92;100.00
967;BME280;56108;48.730;9.304;2022-09-24T04:02:18;97224.22;;;9.96;100.00
967;BME280;56108;48.730;9.304;2022-09-24T04:04:28;97237.47;;;9.84;100.00
967;BME280;56108;48.730;9.304;2022-09-24T04:06:36;97236.94;;;9.79;100.00
967;BME280;56108;48.730;9.304;2022-09-24T04:08:44;97237.13;;;9.89;100.00
967;BME280;56108;48.730;9.304;2022-09-24T04:10:51;97237.91;;;9.78;100.00
967;BME280;56108;48.730;9.304;2022-09-24T04:12:59;97232.06;;;9.73;100.00
967;BME280;56108;48.730;9.304;2022-09-24T04:15:08;97233.75;;;9.87;100.00
967;BME280;56108;48.730;9.304;2022-09-24T04:17:16;97233.50;;;9.90;100.00
967;BME280;56108;48.730;9.304;2022-09-24T04:19:24;97221.38;;;9.99;100.00
967;BME280;56108;48.730;9.304;2022-09-24T04:21:35;97224.09;;;10.10;100.00
967;BME280;56108;48.730;9.304;2022-09-24T04:23:43;97219.94;;;10.06;100.00
967;BME280;56108;48.730;9.304;2022-09-24T04:25:51;97227.22;;;9.91;100.00
967;BME280;56108;48.730;9.304;2022-09-24T04:28:00;97227.03;;;9.81;100.00
967;BME280;56108;48.730;9.304;2022-09-24T04:30:10;97220.16;;;9.79;100.00
967;BME280;56108;48.730;9.304;2022-09-24T04:32:21;97226.72;;;9.86;100.00
967;BME280;56108;48.730;9.304;2022-09-24T04:34:31;97237.44;;;9.97;100.00
967;BME280;56108;48.730;9.304;2022-09-24T04:36:47;97218.25;;;10.05;100.00
967;BME280;56108;48.730;9.304;2022-09-24T04:38:56;97230.19;;;9.99;100.00
967;BME280;56108;48.730;9.304;2022-09-24T04:41:05;97234.69;;;9.86;100.00
967;BME280;56108;48.730;9.304;2022-09-24T04:43:13;97228.00;;;9.80;100.00
967;BME280;56108;48.730;9.304;2022-09-24T04:45:22;97226.63;;;9.87;100.00
967;BME280;56108;48.730;9.304;2022-09-24T04:47:30;97223.72;;;9.90;100.00
967;BME280;56108;48.730;9.304;2022-09-24T04:49:38;97221.84;;;9.80;100.00
967;BME280;56108;48.730;9.304;2022-09-24T04:51:52;97215.22;;;9.85;100.00
967;BME280;56108;48.730;9.304;2022-09-24T04:54:02;97211.75;;;10.09;100.00
967;BME280;56108;48.730;9.304;2022-09-24T04:56:10;97216.03;;;9.99;100.00
967;BME280;56108;48.730;9.304;2022-09-24T04:58:19;97216.66;;;9.78;100.00
967;BME280;56108;48.730;9.304;2022-09-24T05:00:54;97204.78;;;9.58;100.00
967;BME280;56108;48.730;9.304;2022-09-24T05:03:03;97202.84;;;9.60;100.00
967;BME280;56108;48.730;9.304;2022-09-24T05:05:11;97200.44;;;9.57;100.00
967;BME280;56108;48.730;9.304;2022-09-24T05:07:24;97196.88;;;9.46;100.00
967;BME280;56108;48.730;9.304;2022-09-24T05:09:32;97193.00;;;9.50;100.00
967;BME280;56108;48.730;9.304;2022-09-24T05:11:40;97198.75;;;9.44;100.00
967;BME280;56108;48.730;9.304;2022-09-24T05:13:47;97201.94;;;9.49;100.00
967;BME280;56108;48.730;9.304;2022-09-24T05:15:56;97208.78;;;9.40;100.00
967;BME280;56108;48.730;9.304;2022-09-24T05:18:05;97211.72;;;9.48;100.00
967;BME280;56108;48.730;9.304;2022-09-24T05:20:13;97213.16;;;9.65;100.00
967;BME280;56108;48.730;9.304;2022-09-24T05:22:23;97211.25;;;9.67;100.00
967;BME280;56108;48.730;9.304;2022-09-24T05:24:32;97211.06;;;9.57;100.00
967;BME280;56108;48.730;9.304;2022-09-24T05:26:40;97206.72;;;9.44;100.00
967;BME280;56108;48.730;9.304;2022-09-24T05:29:00;97216.19;;;9.48;100.00
967;BME280;56108;48.730;9.304;2022-09-24T05:31:08;97209.63;;;9.40;100.00
967;BME280;56108;48.730;9.304;2022-09-24T05:33:18;97217.78;;;9.50;100.00
967;BME280;56108;48.730;9.304;2022-09-24T05:35:26;97218.00;;;9.47;100.00
967;BME280;56108;48.730;9.304;2022-09-24T05:37:39;97219.03;;;9.57;100.00
967;BME280;56108;48.730;9.304;2022-09-24T05:39:47;97224.88;;;9.50;100.00
967;BME280;56108;48.730;9.304;2022-09-24T05:41:56;97229.47;;;9.48;100.00
967;BME280;56108;48.730;9.304;2022-09-24T05:44:04;97222.13;;;9.51;100.00
967;BME280;56108;48.730;9.304;2022-09-24T05:46:12;97238.06;;;9.51;100.00
967;BME280;56108;48.730;9.304;2022-09-24T05:48:20;97236.78;;;9.44;100.00
967;BME280;56108;48.730;9.304;2022-09-24T05:50:28;97237.75;;;9.56;100.00
967;BME280;56108;48.730;9.304;2022-09-24T05:52:41;97237.19;;;9.63;100.00
967;BME280;56108;48.730;9.304;2022-09-24T05:54:49;97241.03;;;9.59;100.00
967;BME280;56108;48.730;9.304;2022-09-24T05:56:57;97241.66;;;9.63;100.00
967;BME280;56108;48.730;9.304;2022-09-24T05:59:04;97241.78;;;9.61;100.00
967;BME280;56108;48.730;9.304;2022-09-24T06:01:12;97246.66;;;9.55;100.00
967;BME280;56108;48.730;9.304;2022-09-24T06:03:20;97243.34;;;9.64;100.00
967;BME280;56108;48.730;9.304;2022-09-24T06:05:28;97241.22;;;9.69;100.00
967;BME280;56108;48.730;9.304;2022-09-24T06:07:36;97254.13;;;9.86;100.00
967;BME280;56108;48.730;9.304;2022-09-24T06:09:47;97251.22;;;10.02;100.00
967;BME280;56108;48.730;9.304;2022-09-24T06:11:55;97253.44;;;10.08;100.00
967;BME280;56108;48.730;9.304;2022-09-24T06:14:03;97259.44;;;9.86;100.00
967;BME280;56108;48.730;9.304;2022-09-24T06:16:12;97248.50;;;9.91;100.00
967;BME280;56108;48.730;9.304;2022-09-24T06:18:20;97244.97;;;9.90;100.00
967;BME280;56108;48.730;9.304;2022-09-24T06:20:28;97247.56;;;9.92;100.00
967;BME280;56108;48.730;9.304;2022-09-24T06:22:36;97255.47;;;10.05;100.00
967;BME280;56108;48.730;9.304;2022-09-24T06:24:43;97257.91;;;10.08;100.00
967;BME280;56108;48.730;9.304;2022-09-24T06:26:54;97264.50;;;10.02;100.00
967;BME280;56108;48.730;9.304;2022-09-24T06:29:02;97261.25;;;9.99;100.00
967;BME280;56108;48.730;9.304;2022-09-24T06:31:10;97264.59;;;10.13;100.00
967;BME280;56108;48.730;9.304;2022-09-24T06:33:19;97269.63;;;10.05;100.00
967;BME280;56108;48.730;9.304;2022-09-24T06:35:27;97267.69;;;10.07;100.00
967;BME280;56108;48.730;9.304;2022-09-24T06:37:34;97276.63;;;10.06;100.00
967;BME280;56108;48.730;9.304;2022-09-24T06:39:42;97280.69;;;10.23;100.00
967;BME280;56108;48.730;9.304;2022-09-24T06:41:50;97282.63;;;10.34;100.00
967;BME280;56108;48.730;9.304;2022-09-24T06:44:02;97283.59;;;10.57;100.00
967;BME280;56108;48.730;9.304;2022-09-24T06:46:09;97287.34;;;10.89;100.00
967;BME280;56108;48.730;9.304;2022-09-24T06:48:18;97294.28;;;10.68;100.00
967;BME280;56108;48.730;9.304;2022-09-24T06:50:27;97297.56;;;10.48;100.00
967;BME280;56108;48.730;9.304;2022-09-24T06:52:35;97295.25;;;10.67;100.00
967;BME280;56108;48.730;9.304;2022-09-24T06:54:43;97306.00;;;10.65;100.00
967;BME280;56108;48.730;9.304;2022-09-24T06:56:51;97311.94;;;10.69;100.00
967;BME280;56108;48.730;9.304;2022-09-24T06:59:01;97309.06;;;10.48;100.00
967;BME280;56108;48.730;9.304;2022-09-24T07:01:10;97305.66;;;10.46;100.00
967;BME280;56108;48.730;9.304;2022-09-24T07:03:18;97299.75;;;10.54;100.00
967;BME280;56108;48.730;9.304;2022-09-24T07:05:26;97293.88;;;10.61;100.00
967;BME280;56108;48.730;9.304;2022-09-24T07:09:42;97297.59;;;10.83;100.00
967;BME280;56108;48.730;9.304;2022-09-24T07:11:50;97312.13;;;10.90;100.00
967;BME280;56108;48.730;9.304;2022-09-24T07:14:01;97307.41;;;11.17;100.00
967;BME280;56108;48.730;9.304;2022-09-24T07:16:08;97315.91;;;11.34;100.00
967;BME280;56108;48.730;9.304;2022-09-24T07:18:17;97313.31;;;11.10;100.00
967;BME280;56108;48.730;9.304;2022-09-24T07:20:25;97323.13;;;11.20;100.00
967;BME280;56108;48.730;9.304;2022-09-24T07:22:36;97323.22;;;11.54;98.85
967;BME280;56108;48.730;9.304;2022-09-24T07:24:44;97331.16;;;11.43;98.70
967;BME280;56108;48.730;9.304;2022-09-24T07:26:52;97331.41;;;11.40;98.60
967;BME280;56108;48.730;9.304;2022-09-24T07:29:03;97332.00;;;11.32;99.26
967;BME280;56108;48.730;9.304;2022-09-24T07:31:11;97328.84;;;11.27;99.90
967;BME280;56108;48.730;9.304;2022-09-24T07:33:20;97337.22;;;11.34;100.00
967;BME280;56108;48.730;9.304;2022-09-24T07:35:28;97336.88;;;11.38;99.66
967;BME280;56108;48.730;9.304;2022-09-24T07:37:36;97333.47;;;11.47;99.43
967;BME280;56108;48.730;9.304;2022-09-24T07:39:44;97332.03;;;11.43;99.58
967;BME280;56108;48.730;9.304;2022-09-24T07:41:52;97333.13;;;11.41;99.41
967;BME280;56108;48.730;9.304;2022-09-24T07:44:02;97331.44;;;11.62;99.09
967;BME280;56108;48.730;9.304;2022-09-24T07:46:11;97339.75;;;11.82;98.05
967;BME280;56108;48.730;9.304;2022-09-24T07:48:19;97341.44;;;12.16;97.09
967;BME280;56108;48.730;9.304;2022-09-24T07:50:29;97349.41;;;12.39;95.18
967;BME280;56108;48.730;9.304;2022-09-24T07:52:38;97355.53;;;12.62;93.59
967;BME280;56108;48.730;9.304;2022-09-24T07:54:45;97360.31;;;12.58;91.73
967;BME280;56108;48.730;9.304;2022-09-24T07:56:53;97351.25;;;12.27;92.42
967;BME280;56108;48.730;9.304;2022-09-24T07:59:04;97346.66;;;12.18;92.97
967;BME280;56108;48.730;9.304;2022-09-24T08:01:15;97352.00;;;11.95;94.95
967;BME280;56108;48.730;9.304;2022-09-24T08:03:25;97345.44;;;11.99;97.20
967;BME280;56108;48.730;9.304;2022-09-24T08:05:33;97356.97;;;12.11;95.87
967;BME280;56108;48.730;9.304;2022-09-24T08:08:00;97352.69;;;12.20;94.30
967;BME280;56108;48.730;9.304;2022-09-24T08:10:14;97357.16;;;12.53;93.21
967;BME280;56108;48.730;9.304;2022-09-24T08:12:31;97354.63;;;12.84;93.22
967;BME280;56108;48.730;9.304;2022-09-24T08:15:05;97355.66;;;13.03;90.21
967;BME280;56108;48.730;9.304;2022-09-24T08:17:20;97347.78;;;13.34;88.47
967;BME280;56108;48.730;9.304;2022-09-24T08:19:34;97364.50;;;13.57;87.34
967;BME280;56108;48.730;9.304;2022-09-24T08:21:43;97366.69;;;13.63;86.95
967;BME280;56108;48.730;9.304;2022-09-24T08:23:52;97375.66;;;13.83;86.66
967;BME280;56108;48.730;9.304;2022-09-24T08:26:00;97369.59;;;13.81;86.24
967;BME280;56108;48.730;9.304;2022-09-24T08:28:08;97372.44;;;13.58;87.40
967;BME280;56108;48.730;9.304;2022-09-24T08:30:19;97373.66;;;13.34;87.32
967;BME280;56108;48.730;9.304;2022-09-24T08:32:27;97368.97;;;13.47;88.36
967;BME280;56108;48.730;9.304;2022-09-24T08:34:35;97373.88;;;13.42;88.98
967;BME280;56108;48.730;9.304;2022-09-24T08:36:44;97366.41;;;13.66;87.54
967;BME280;56108;48.730;9.304;2022-09-24T08:38:54;97377.56;;;13.71;87.45
967;BME280;56108;48.730;9.304;2022-09-24T08:41:15;97377.31;;;13.74;86.92
967;BME280;56108;48.730;9.304;2022-09-24T08:43:38;97374.56;;;13.65;86.85
967;BME280;56108;48.730;9.304;2022-09-24T08:45:53;97378.19;;;14.05;85.94
967;BME280;56108;48.730;9.304;2022-09-24T08:48:16;97382.44;;;13.87;86.39
967;BME280;56108;48.730;9.304;2022-09-24T08:50:27;97373.28;;;14.10;86.61
967;BME280;56108;48.730;9.304;2022-09-24T08:52:45;97374.41;;;13.87;87.84
967;BME280;56108;48.730;9.304;2022-09-24T08:55:00;97372.50;;;13.99;90.15
967;BME280;56108;48.730;9.304;2022-09-24T08:57:13;97374.19;;;14.61;89.85
967;BME280;56108;48.730;9.304;2022-09-24T08:59:27;97370.31;;;14.94;88.42
967;BME280;56108;48.730;9.304;2022-09-24T09:01:46;97368.31;;;15.45;85.78
967;BME280;56108;48.730;9.304;2022-09-24T09:03:59;97364.66;;;15.55;83.32
967;BME280;56108;48.730;9.304;2022-09-24T09:06:18;97366.06;;;15.79;81.77
967;BME280;56108;48.730;9.304;2022-09-24T09:08:38;97365.50;;;15.75;81.73
967;BME280;56108;48.730;9.304;2022-09-24T09:11:12;97371.59;;;16.52;78.25
967;BME280;56108;48.730;9.304;2022-09-24T09:13:24;97375.19;;;16.98;76.65
967;BME280;56108;48.730;9.304;2022-09-24T09:15:36;97371.19;;;17.37;75.91
967;BME280;56108;48.730;9.304;2022-09-24T09:17:51;97366.25;;;17.33;75.08
967;BME280;56108;48.730;9.304;2022-09-24T09:20:06;97362.34;;;17.09;74.06
967;BME280;56108;48.730;9.304;2022-09-24T09:22:20;97366.94;;;16.99;74.78
967;BME280;56108;48.730;9.304;2022-09-24T09:24:36;97367.78;;;17.00;74.32
967;BME280;56108;48.730;9.304;2022-09-24T09:26:49;97371.59;;;17.25;74.33
967;BME280;56108;48.730;9.304;2022-09-24T09:28:59;97371.41;;;17.08;74.29
967;BME280;56108;48.730;9.304;2022-09-24T09:31:23;97372.56;;;17.41;74.55
967;BME280;56108;48.730;9.304;2022-09-24T09:33:48;97373.56;;;17.76;71.88
967;BME280;56108;48.730;9.304;2022-09-24T09:36:27;97380.81;;;18.28;71.08
967;BME280;56108;48.730;9.304;2022-09-24T09:38:46;97388.50;;;18.22;70.94
967;BME280;56108;48.730;9.304;2022-09-24T09:41:02;97384.66;;;17.99;70.90
967;BME280;56108;48.730;9.304;2022-09-24T09:43:13;97376.91;;;16.71;73.64
967;BME280;56108;48.730;9.304;2022-09-24T09:45:29;97374.25;;;17.07;74.80
967;BME280;56108;48.730;9.304;2022-09-24T09:47:42;97375.28;;;17.24;74.35
967;BME280;56108;48.730;9.304;2022-09-24T09:49:55;97367.72;;;17.09;75.66
967;BME280;56108;48.730;9.304;2022-09-24T09:52:14;97367.72;;;16.91;75.01
967;BME280;56108;48.730;9.304;2022-09-24T09:54:34;97368.63;;;16.82;75.79
967;BME280;56108;48.730;9.304;2022-09-24T09:56:45;97365.00;;;16.74;75.89
967;BME280;56108;48.730;9.304;2022-09-24T09:59:02;97370.72;;;16.88;75.60
967;BME280;56108;48.730;9.304;2022-09-24T10:01:12;97365.16;;;16.72;76.43
967;BME280;56108;48.730;9.304;2022-09-24T10:03:28;97362.44;;;17.35;75.18
967;BME280;56108;48.730;9.304;2022-09-24T10:05:38;97365.34;;;17.24;73.62
967;BME280;56108;48.730;9.304;2022-09-24T10:07:46;97354.69;;;16.41;77.49
967;BME280;56108;48.730;9.304;2022-09-24T10:10:00;97353.66;;;17.15;75.94
967;BME280;56108;48.730;9.304;2022-09-24T10:12:14;97357.25;;;17.78;74.14
967;BME280;56108;48.730;9.304;2022-09-24T10:14:24;97356.41;;;17.59;74.01
967;BME280;56108;48.730;9.304;2022-09-24T10:16:36;97367.34;;;18.28;72.43
967;BME280;56108;48.730;9.304;2022-09-24T10:18:46;97366.63;;;18.25;72.03
967;BME280;56108;48.730;9.304;2022-09-24T10:20:58;97365.31;;;18.04;72.65
967;BME280;56108;48.730;9.304;2022-09-24T10:23:16;97357.06;;;17.97;73.58
967;BME280;56108;48.730;9.304;2022-09-24T10:25:28;97351.69;;;18.05;72.79
967;BME280;56108;48.730;9.304;2022-09-24T10:27:36;97356.13;;;18.14;72.17
967;BME280;56108;48.730;9.304;2022-09-24T10:29:44;97355.44;;;18.46;71.88
967;BME280;56108;48.730;9.304;2022-09-24T10:32:05;97355.19;;;18.32;70.56
967;BME280;56108;48.730;9.304;2022-09-24T10:34:23;97354.78;;;18.52;69.53
967;BME280;56108;48.730;9.304;2022-09-24T10:36:35;97356.78;;;18.08;69.78
967;BME280;56108;48.730;9.304;2022-09-24T10:38:43;97355.66;;;18.19;71.49
967;BME280;56108;48.730;9.304;2022-09-24T10:40:51;97355.28;;;18.14;71.86
967;BME280;56108;48.730;9.304;2022-09-24T10:43:00;97360.84;;;18.12;72.41
967;BME280;56108;48.730;9.304;2022-09-24T10:45:12;97354.56;;;18.04;72.03
967;BME280;56108;48.730;9.304;2022-09-24T10:47:26;97354.28;;;18.15;71.71
967;BME280;56108;48.730;9.304;2022-09-24T10:49:46;97350.34;;;18.01;72.94
967;BME280;56108;48.730;9.304;2022-09-24T10:52:10;97360.03;;;17.94;74.05
967;BME280;56108;48.730;9.304;2022-09-24T10:54:36;97349.31;;;17.58;75.73
967;BME280;56108;48.730;9.304;2022-09-24T10:56:49;97362.03;;;17.48;78.02
967;BME280;56108;48.730;9.304;2022-09-24T10:59:15;97356.44;;;17.24;78.76
967;BME280;56108;48.730;9.304;2022-09-24T11:01:31;97353.03;;;17.21;80.09
967;BME280;56108;48.730;9.304;2022-09-24T11:04:10;97359.28;;;17.04;81.09
967;BME280;56108;48.730;9.304;2022-09-24T11:06:36;97356.06;;;17.18;80.25
967;BME280;56108;48.730;9.304;2022-09-24T11:09:03;97354.06;;;17.20;82.14
967;BME280;56108;48.730;9.304;2022-09-24T11:11:26;97353.94;;;17.48;81.25
967;BME280;56108;48.730;9.304;2022-09-24T11:13:43;97358.28;;;17.85;81.79
967;BME280;56108;48.730;9.304;2022-09-24T11:18:34;97358.78;;;17.80;82.08
967;BME280;56108;48.730;9.304;2022-09-24T11:23:15;97364.78;;;17.74;80.90
967;BME280;56108;48.730;9.304;2022-09-24T11:25:35;97367.00;;;17.79;80.29
967;BME280;56108;48.730;9.304;2022-09-24T11:27:50;97364.16;;;17.62;80.46
967;BME280;56108;48.730;9.304;2022-09-24T11:30:08;97358.56;;;17.38;80.74
967;BME280;56108;48.730;9.304;2022-09-24T11:32:22;97353.81;;;17.32;82.32
967;BME280;56108;48.730;9.304;2022-09-24T11:34:46;97350.94;;;17.87;80.95
967;BME280;56108;48.730;9.304;2022-09-24T11:37:09;97352.78;;;18.20;78.38
967;BME280;56108;48.730;9.304;2022-09-24T11:39:32;97350.00;;;18.04;80.03
967;BME280;56108;48.730;9.304;2022-09-24T11:41:48;97353.44;;;17.88;79.37
967;BME280;56108;48.730;9.304;2022-09-24T11:44:18;97346.66;;;17.40;79.84
967;BME280;56108;48.730;9.304;2022-09-24T11:46:42;97344.38;;;17.10;82.75
967;BME280;56108;48.730;9.304;2022-09-24T11:49:12;97340.84;;;17.09;81.04
967;BME280;56108;48.730;9.304;2022-09-24T11:51:32;97337.84;;;16.77;84.61
967;BME280;56108;48.730;9.304;2022-09-24T11:53:46;97332.06;;;16.72;85.74
967;BME280;56108;48.730;9.304;2022-09-24T11:55:59;97337.81;;;16.49;87.25
967;BME280;56108;48.730;9.304;2022-09-24T11:58:17;97333.94;;;16.61;86.60
967;BME280;56108;48.730;9.304;2022-09-24T12:00:30;97333.78;;;16.63;87.79
967;BME280;56108;48.730;9.304;2022-09-24T12:02:43;97339.81;;;16.75;87.78
967;BME280;56108;48.730;9.304;2022-09-24T12:04:57;97334.38;;;16.84;86.84